Time;durP1;ratioP1;P1;durP2;ratioP2;P2;SDS_P1;SDS_P2;PMS_P1;PMS_P2;Temp;Humidity;BMP_temperature;BMP_pressure;BME280_temperature;BME280_humidity;BME280_pressure;Samples;Min_cycle;Max_cycle;Signal;HPM_P1;HPM_P2
2023/12/16 00:00:27;;;;;;;11.25;5.20;;;11.10;69.30;;;;;;5010289;28;20046;-64
2023/12/16 00:02:54;;;;;;;9.15;5.35;;;11.10;69.40;;;;;;5010688;28;20131;-64
2023/12/16 00:05:22;;;;;;;10.48;5.30;;;11.10;69.30;;;;;;5010401;28;20116;-64
2023/12/16 00:07:50;;;;;;;12.13;6.10;;;11.10;69.30;;;;;;5008932;28;20795;-63
2023/12/16 00:10:17;;;;;;;9.70;5.32;;;11.10;69.20;;;;;;5019219;28;20125;-63
2023/12/16 00:12:49;;;;;;;12.15;5.40;;;11.10;69.20;;;;;;5020119;28;20127;-64
2023/12/16 00:15:18;;;;;;;9.60;4.50;;;11.10;69.40;;;;;;5020480;28;20053;-63
2023/12/16 00:17:45;;;;;;;10.02;5.80;;;11.10;69.30;;;;;;5013156;28;20103;-64
2023/12/16 00:20:12;;;;;;;15.57;5.68;;;11.10;69.20;;;;;;5015325;28;20041;-64
2023/12/16 00:22:39;;;;;;;11.90;5.88;;;11.10;69.10;;;;;;5020919;28;20466;-64
2023/12/16 00:25:07;;;;;;;12.65;5.55;;;11.10;69.30;;;;;;5007494;28;20164;-64
2023/12/16 00:27:37;;;;;;;11.98;5.80;;;11.10;69.20;;;;;;5015560;28;20043;-63
2023/12/16 00:30:06;;;;;;;15.95;6.00;;;11.10;69.20;;;;;;5019066;28;20048;-63
2023/12/16 00:32:39;;;;;;;13.65;6.28;;;11.10;69.20;;;;;;5016749;28;20462;-64
2023/12/16 00:35:07;;;;;;;12.23;6.35;;;11.10;69.10;;;;;;5019471;28;20076;-64
2023/12/16 00:37:34;;;;;;;11.50;6.35;;;11.10;68.90;;;;;;5022348;28;20038;-64
2023/12/16 00:40:03;;;;;;;11.23;6.07;;;11.10;68.90;;;;;;5014276;28;20133;-64
2023/12/16 00:42:30;;;;;;;18.40;7.45;;;11.10;69.60;;;;;;5013009;28;20122;-64
2023/12/16 00:44:57;;;;;;;13.77;6.78;;;11.10;69.00;;;;;;5021425;28;20157;-64
2023/12/16 00:47:24;;;;;;;11.55;6.65;;;11.10;69.20;;;;;;5025824;28;20107;-64
2023/12/16 00:49:53;;;;;;;12.20;6.40;;;11.10;69.00;;;;;;5015336;28;20125;-63
2023/12/16 00:52:20;;;;;;;9.35;5.43;;;11.10;68.90;;;;;;5021984;28;20061;-63
2023/12/16 00:54:50;;;;;;;9.63;5.72;;;11.10;68.80;;;;;;5017367;28;20042;-64
2023/12/16 00:57:17;;;;;;;9.95;5.30;;;11.10;68.80;;;;;;5016262;28;20045;-64
2023/12/16 00:59:46;;;;;;;8.02;5.15;;;11.10;68.70;;;;;;5013993;28;20045;-64
2023/12/16 01:02:13;;;;;;;7.50;4.63;;;11.10;68.60;;;;;;5013730;28;20563;-64
2023/12/16 01:04:39;;;;;;;8.38;4.75;;;11.10;68.60;;;;;;5013798;28;20495;-64
2023/12/16 01:07:06;;;;;;;9.38;5.38;;;11.10;68.50;;;;;;5011841;28;20053;-64
2023/12/16 01:09:33;;;;;;;12.73;5.18;;;11.00;68.50;;;;;;5026774;28;20056;-64
2023/12/16 01:12:00;;;;;;;9.20;5.00;;;11.00;68.30;;;;;;5023269;28;20568;-63
2023/12/16 01:14:26;;;;;;;9.57;5.13;;;11.10;68.30;;;;;;5022954;28;20050;-64
2023/12/16 01:16:53;;;;;;;9.30;4.80;;;11.10;68.40;;;;;;5015662;28;20141;-64
2023/12/16 01:19:20;;;;;;;7.20;4.15;;;11.10;68.20;;;;;;5025927;28;20053;-63
2023/12/16 01:21:47;;;;;;;9.25;4.95;;;11.10;68.10;;;;;;5023984;28;20451;-64
2023/12/16 01:24:14;;;;;;;8.93;4.63;;;11.10;67.90;;;;;;5016700;28;20045;-64
2023/12/16 01:26:46;;;;;;;11.35;4.55;;;11.10;68.00;;;;;;5022337;28;20042;-64
2023/12/16 01:29:15;;;;;;;8.00;4.47;;;11.00;68.00;;;;;;5022943;28;20042;-64
2023/12/16 01:31:42;;;;;;;10.13;4.97;;;11.10;67.80;;;;;;5022078;28;20516;-64
2023/12/16 01:34:09;;;;;;;8.48;3.90;;;11.00;67.70;;;;;;5018093;28;20030;-64
2023/12/16 01:36:38;;;;;;;8.23;4.18;;;11.00;67.50;;;;;;5026654;28;20103;-64
2023/12/16 01:39:05;;;;;;;7.78;4.35;;;11.00;67.40;;;;;;5024208;28;20034;-61
2023/12/16 01:41:32;;;;;;;7.82;4.32;;;11.10;67.60;;;;;;5018504;28;20069;-61
2023/12/16 01:44:01;;;;;;;6.93;3.92;;;11.00;67.40;;;;;;5024398;28;20514;-61
2023/12/16 01:46:35;;;;;;;12.32;4.63;;;11.00;67.30;;;;;;5016485;28;20091;-61
2023/12/16 01:49:02;;;;;;;8.93;3.78;;;11.00;67.80;;;;;;5024353;28;20037;-61
2023/12/16 01:51:31;;;;;;;7.82;4.28;;;11.00;67.10;;;;;;5011224;28;20049;-61
2023/12/16 01:53:58;;;;;;;7.85;3.15;;;11.00;67.10;;;;;;5014953;28;20076;-61
2023/12/16 01:56:28;;;;;;;8.13;4.22;;;11.00;67.10;;;;;;5020839;28;20077;-61
2023/12/16 01:58:55;;;;;;;6.70;3.47;;;11.00;67.00;;;;;;5012674;28;20096;-61
2023/12/16 02:01:22;;;;;;;11.15;4.13;;;11.00;67.10;;;;;;5012464;28;20038;-61
2023/12/16 02:03:50;;;;;;;6.75;3.40;;;11.00;67.00;;;;;;5012677;28;20587;-61
2023/12/16 02:06:20;;;;;;;9.38;3.50;;;11.10;66.90;;;;;;5011276;28;20160;-61
2023/12/16 02:08:49;;;;;;;8.30;3.35;;;11.10;67.00;;;;;;5013357;28;20056;-61
2023/12/16 02:11:15;;;;;;;7.82;3.38;;;11.00;66.90;;;;;;5024166;28;20081;-61
2023/12/16 02:13:42;;;;;;;10.40;3.92;;;11.10;66.80;;;;;;5027387;28;20095;-61
2023/12/16 02:16:11;;;;;;;6.53;3.35;;;11.10;66.60;;;;;;5014881;28;20044;-61
2023/12/16 02:18:39;;;;;;;7.45;3.00;;;11.00;66.50;;;;;;5023218;28;20038;-61
2023/12/16 02:21:05;;;;;;;7.80;3.15;;;11.10;66.40;;;;;;5024872;28;20500;-61
2023/12/16 02:23:38;;;;;;;6.90;3.58;;;11.00;66.30;;;;;;5017951;28;20074;-61
2023/12/16 02:26:05;;;;;;;11.27;4.05;;;11.10;66.10;;;;;;5018624;28;20042;-61
2023/12/16 02:28:33;;;;;;;5.60;3.53;;;11.00;66.00;;;;;;5027400;28;20543;-61
2023/12/16 02:31:00;;;;;;;6.68;3.45;;;11.10;66.30;;;;;;5025653;28;20104;-61
2023/12/16 02:33:29;;;;;;;5.32;3.50;;;11.10;66.60;;;;;;5021167;28;20096;-61
2023/12/16 02:35:56;;;;;;;7.25;3.40;;;11.10;66.60;;;;;;5021401;28;20068;-61
2023/12/16 02:38:23;;;;;;;9.80;3.97;;;11.10;66.80;;;;;;5026911;28;20113;-61
2023/12/16 02:40:52;;;;;;;9.90;4.57;;;11.10;66.90;;;;;;5027145;28;20065;-61
2023/12/16 02:43:21;;;;;;;7.97;3.55;;;11.10;66.90;;;;;;5019411;28;20077;-61
2023/12/16 02:45:47;;;;;;;6.38;3.20;;;11.10;66.90;;;;;;5017139;28;20073;-61
2023/12/16 02:48:14;;;;;;;9.15;3.85;;;11.10;67.00;;;;;;5025845;28;20049;-61
2023/12/16 02:50:41;;;;;;;4.97;3.42;;;11.10;66.90;;;;;;5027597;28;20055;-61
2023/12/16 02:53:12;;;;;;;5.82;3.40;;;11.10;66.90;;;;;;5014223;28;20137;-61
2023/12/16 02:55:41;;;;;;;6.33;3.87;;;11.10;66.90;;;;;;5015620;28;20096;-61
2023/12/16 02:58:10;;;;;;;9.38;4.28;;;11.10;66.70;;;;;;5015089;28;20363;-61
2023/12/16 03:00:39;;;;;;;10.13;5.00;;;11.10;66.60;;;;;;5011826;28;20050;-61
2023/12/16 03:03:07;;;;;;;9.00;4.40;;;11.10;66.70;;;;;;5011721;28;20044;-61
2023/12/16 03:05:38;;;;;;;6.82;3.92;;;11.10;66.80;;;;;;5009302;28;20559;-62
2023/12/16 03:08:06;;;;;;;9.95;4.35;;;11.10;66.60;;;;;;5011060;28;20100;-61
2023/12/16 03:10:38;;;;;;;7.55;3.95;;;11.10;66.50;;;;;;5027892;28;20118;-61
2023/12/16 03:13:05;;;;;;;7.70;4.53;;;11.10;66.40;;;;;;5026271;28;20045;-61
2023/12/16 03:15:31;;;;;;;10.45;3.97;;;11.10;66.30;;;;;;5014547;28;20319;-61
2023/12/16 03:18:00;;;;;;;10.35;4.15;;;11.10;66.10;;;;;;5019185;28;20466;-61
2023/12/16 03:20:27;;;;;;;7.85;4.25;;;11.00;66.00;;;;;;5027187;28;20040;-61
2023/12/16 03:22:54;;;;;;;12.05;4.60;;;11.00;66.10;;;;;;5024441;28;20087;-61
2023/12/16 03:25:23;;;;;;;14.55;4.50;;;11.10;66.20;;;;;;5015270;28;20497;-61
2023/12/16 03:27:50;;;;;;;5.40;4.00;;;11.00;66.00;;;;;;5024157;28;20041;-61
2023/12/16 03:30:17;;;;;;;8.65;4.18;;;11.00;66.10;;;;;;5026025;28;20053;-61
2023/12/16 03:32:52;;;;;;;9.38;4.20;;;11.10;66.20;;;;;;5020266;28;20049;-61
2023/12/16 03:35:24;;;;;;;7.07;4.07;;;11.10;66.10;;;;;;5024804;28;20096;-61
2023/12/16 03:37:50;;;;;;;8.88;4.28;;;11.00;66.00;;;;;;5027710;28;20049;-61
2023/12/16 03:40:17;;;;;;;4.93;3.80;;;11.00;66.00;;;;;;5020239;28;20076;-61
2023/12/16 03:42:46;;;;;;;8.35;4.28;;;11.00;66.10;;;;;;5020539;28;20041;-61
2023/12/16 03:45:15;;;;;;;6.72;4.22;;;11.00;66.10;;;;;;5026744;28;20045;-61
2023/12/16 03:47:44;;;;;;;7.05;3.97;;;11.00;66.00;;;;;;5026658;28;20593;-61
2023/12/16 03:50:14;;;;;;;;;;;11.00;66.20;;;;;;5015976;28;20730;-61
2023/12/16 03:52:40;;;;;;;7.25;3.72;;;11.10;66.20;;;;;;5026982;28;19967;-61
2023/12/16 03:55:07;;;;;;;6.75;3.95;;;11.10;66.30;;;;;;5016279;28;20042;-61
2023/12/16 03:57:37;;;;;;;9.70;4.07;;;11.00;66.30;;;;;;5008944;28;20041;-61
2023/12/16 04:00:08;;;;;;;7.63;3.78;;;11.00;66.30;;;;;;5010040;28;20048;-61
2023/12/16 04:02:38;;;;;;;12.27;4.00;;;10.90;66.20;;;;;;5025212;28;20033;-61
2023/12/16 04:05:08;;;;;;;8.70;3.90;;;10.90;66.10;;;;;;5010590;28;20046;-61
2023/12/16 04:07:40;;;;;;;8.07;4.18;;;10.90;66.00;;;;;;5008335;28;20519;-61
2023/12/16 04:10:08;;;;;;;9.00;4.30;;;10.80;66.00;;;;;;5022588;28;20041;-61
2023/12/16 04:12:37;;;;;;;9.88;4.63;;;10.80;66.10;;;;;;5028496;28;20063;-61
2023/12/16 04:15:05;;;;;;;8.30;4.55;;;10.70;66.20;;;;;;5027286;28;20128;-61
2023/12/16 04:17:33;;;;;;;5.85;3.80;;;10.70;66.40;;;;;;5003322;28;20069;-61
2023/12/16 04:20:00;;;;;;;9.95;4.47;;;10.70;66.50;;;;;;5019125;28;20042;-61
2023/12/16 04:22:26;;;;;;;9.57;4.85;;;10.60;66.60;;;;;;5022927;28;20038;-61
2023/12/16 04:24:57;;;;;;;8.82;3.90;;;10.60;66.50;;;;;;5017879;28;20043;-61
2023/12/16 04:27:26;;;;;;;6.95;3.80;;;10.60;66.40;;;;;;5021138;28;20573;-61
2023/12/16 04:29:55;;;;;;;8.27;4.30;;;10.70;66.60;;;;;;5028854;28;20072;-61
2023/12/16 04:32:29;;;;;;;10.38;4.30;;;10.60;66.50;;;;;;5023227;28;20053;-61
2023/12/16 04:34:58;;;;;;;10.70;4.28;;;10.60;66.50;;;;;;5048640;22;20051;-53
2023/12/16 04:37:27;;;;;;;9.83;4.00;;;10.60;66.70;;;;;;5046757;28;20097;-51
2023/12/16 04:39:54;;;;;;;8.15;3.75;;;10.60;66.70;;;;;;5046716;28;20033;-55
2023/12/16 04:42:22;;;;;;;10.52;4.45;;;10.60;66.90;;;;;;5051008;28;20044;-54
2023/12/16 04:44:51;;;;;;;10.48;3.88;;;10.60;66.90;;;;;;5031986;28;20037;-58
2023/12/16 04:47:18;;;;;;;7.18;3.97;;;10.60;67.00;;;;;;5044335;28;20076;-52
2023/12/16 04:49:45;;;;;;;7.03;4.60;;;10.60;67.10;;;;;;5049846;28;20068;-56
2023/12/16 04:52:14;;;;;;;11.68;4.78;;;10.60;67.00;;;;;;5049450;28;20507;-58
2023/12/16 04:54:44;;;;;;;10.80;4.60;;;10.60;67.10;;;;;;5045755;28;20044;-56
2023/12/16 04:57:11;;;;;;;9.00;3.50;;;10.60;67.10;;;;;;5046954;28;20653;-57
2023/12/16 04:59:42;;;;;;;13.43;4.38;;;10.60;67.20;;;;;;5047993;28;20044;-59
2023/12/16 05:02:09;;;;;;;6.32;3.67;;;10.60;67.20;;;;;;5049363;28;20052;-57
2023/12/16 05:04:35;;;;;;;7.57;3.90;;;10.60;67.20;;;;;;5049706;28;20607;-56
2023/12/16 05:07:07;;;;;;;8.82;4.03;;;10.60;67.10;;;;;;5046677;28;20044;-57
2023/12/16 05:09:36;;;;;;;8.70;4.03;;;10.60;67.20;;;;;;5049719;28;20037;-57
2023/12/16 05:12:03;;;;;;;6.82;3.95;;;10.60;67.10;;;;;;5049175;28;20064;-56
2023/12/16 05:14:32;;;;;;;10.98;4.35;;;10.70;67.20;;;;;;5024211;28;20048;-57
2023/12/16 05:17:00;;;;;;;10.07;4.05;;;10.70;67.20;;;;;;5045004;28;20072;-53
2023/12/16 05:19:28;;;;;;;9.10;3.75;;;10.70;67.30;;;;;;5049589;28;20660;-56
2023/12/16 05:21:59;;;;;;;12.80;4.55;;;10.70;67.30;;;;;;5049214;28;20048;-54
2023/12/16 05:24:25;;;;;;;8.32;3.85;;;10.70;67.10;;;;;;5043810;28;20052;-53
2023/12/16 05:26:54;;;;;;;11.75;4.03;;;10.70;67.10;;;;;;5041496;28;20044;-55
2023/12/16 05:29:21;;;;;;;13.68;4.50;;;10.70;66.90;;;;;;5049347;28;20099;-55
2023/12/16 05:31:47;;;;;;;12.65;4.63;;;10.70;66.80;;;;;;5050673;28;20491;-52
2023/12/16 05:34:14;;;;;;;9.05;3.80;;;10.70;66.80;;;;;;5043305;28;20492;-54
2023/12/16 05:36:41;;;;;;;7.15;3.75;;;10.70;66.80;;;;;;5049414;28;20047;-55
2023/12/16 05:39:11;;;;;;;8.05;3.70;;;10.70;66.80;;;;;;5052619;28;20069;-58
2023/12/16 05:41:38;;;;;;;7.00;3.75;;;10.70;66.70;;;;;;5052984;28;20033;-54
2023/12/16 05:44:09;;;;;;;7.85;3.67;;;10.70;66.70;;;;;;5046893;28;20037;-58
2023/12/16 05:46:36;;;;;;;;;;;10.70;66.70;;;;;;5045995;28;20396;-52
2023/12/16 05:49:07;;;;;;;5.38;3.38;;;10.80;66.60;;;;;;5052890;28;19966;-56
2023/12/16 05:51:41;;;;;;;13.43;3.95;;;10.80;66.70;;;;;;5044581;28;20090;-58
2023/12/16 05:54:09;;;;;;;7.40;3.55;;;10.80;66.50;;;;;;5040407;28;20064;-55
2023/12/16 05:56:35;;;;;;;7.78;3.55;;;10.80;66.80;;;;;;5052243;28;20047;-55
2023/12/16 05:59:02;;;;;;;14.15;4.65;;;10.70;66.90;;;;;;5043309;28;20041;-54
2023/12/16 06:01:29;;;;;;;9.63;3.65;;;10.70;66.90;;;;;;5052227;28;20122;-56
2023/12/16 06:04:00;;;;;;;12.00;4.72;;;10.80;66.90;;;;;;5052024;28;20041;-56
2023/12/16 06:06:30;;;;;;;9.90;4.97;;;10.80;66.90;;;;;;5046565;28;20095;-57
2023/12/16 06:08:57;;;;;;;12.10;5.30;;;10.80;66.80;;;;;;5052615;28;20045;-53
2023/12/16 06:11:28;;;;;;;11.30;5.57;;;10.80;66.80;;;;;;5052263;28;20076;-57
2023/12/16 06:13:56;;;;;;;10.93;4.65;;;10.80;66.70;;;;;;5044850;28;20118;-57
2023/12/16 06:16:28;;;;;;;9.95;4.53;;;10.80;66.70;;;;;;5047893;28;20628;-57
2023/12/16 06:18:55;;;;;;;9.73;4.10;;;10.80;66.70;;;;;;5052373;28;20589;-58
2023/12/16 06:21:25;;;;;;;8.82;3.83;;;10.80;66.60;;;;;;5051881;28;20029;-55
2023/12/16 06:23:52;;;;;;;9.35;3.95;;;10.70;66.40;;;;;;5041110;28;20060;-53
2023/12/16 06:26:20;;;;;;;10.38;4.15;;;10.70;66.40;;;;;;5050799;28;20047;-55
2023/12/16 06:29:04;;;;;;;8.68;3.78;;;10.70;66.40;;;;;;5051951;28;20044;-58
2023/12/16 06:31:31;;;;;;;9.10;4.00;;;10.60;66.40;;;;;;5051107;28;20053;-56
2023/12/16 06:33:57;;;;;;;10.13;4.38;;;10.60;66.40;;;;;;5045333;28;20048;-56
2023/12/16 06:36:30;;;;;;;8.93;3.78;;;10.50;66.50;;;;;;5050524;28;20132;-57
2023/12/16 06:38:57;;;;;;;12.07;4.63;;;10.50;67.30;;;;;;5051332;28;20041;-57
2023/12/16 06:41:29;;;;;;;9.82;4.63;;;10.40;66.70;;;;;;5045100;28;20121;-53
2023/12/16 06:44:09;;;;;;;10.60;4.50;;;10.40;66.80;;;;;;5048403;28;20044;-56
2023/12/16 06:46:38;;;;;;;9.13;4.70;;;10.30;66.80;;;;;;5033239;28;20039;-54
2023/12/16 06:49:05;;;;;;;10.02;4.55;;;10.30;67.00;;;;;;5044509;28;20128;-59
2023/12/16 06:51:36;;;;;;;11.55;3.53;;;10.20;67.10;;;;;;5050335;28;20080;-58
2023/12/16 06:54:05;;;;;;;12.43;4.28;;;10.20;67.20;;;;;;5044066;28;20052;-58
2023/12/16 06:56:33;;;;;;;9.30;4.35;;;10.20;67.30;;;;;;5051666;28;20522;-58
2023/12/16 06:59:02;;;;;;;8.63;3.83;;;10.10;67.40;;;;;;5042310;28;20123;-57
2023/12/16 07:01:29;;;;;;;8.95;4.20;;;10.10;67.50;;;;;;5036434;28;20666;-56
2023/12/16 07:03:58;;;;;;;6.97;4.32;;;10.00;67.50;;;;;;5051847;28;20086;-58
2023/12/16 07:06:26;;;;;;;9.65;4.40;;;9.90;67.50;;;;;;5048877;28;20037;-58
2023/12/16 07:08:53;;;;;;;9.90;4.35;;;9.90;67.60;;;;;;5047728;28;20095;-56
2023/12/16 07:11:20;;;;;;;9.38;4.82;;;9.90;67.80;;;;;;5051455;28;20095;-56
2023/12/16 07:13:47;;;;;;;9.40;3.55;;;9.90;67.90;;;;;;5051633;28;20048;-55
2023/12/16 07:16:30;;;;;;;;;;;9.80;67.90;;;;;;5046426;28;20090;-55
2023/12/16 07:18:58;;;;;;;7.00;3.97;;;9.80;67.90;;;;;;5048820;28;19927;-56
2023/12/16 07:21:27;;;;;;;9.15;4.80;;;9.80;68.60;;;;;;5051293;28;20053;-55
2023/12/16 07:23:56;;;;;;;9.18;3.42;;;9.70;68.00;;;;;;5046577;28;20120;-55
2023/12/16 07:26:22;;;;;;;7.70;3.55;;;9.70;68.10;;;;;;5049771;28;20072;-56
2023/12/16 07:28:53;;;;;;;10.65;4.65;;;9.70;68.30;;;;;;5051640;28;20140;-58
2023/12/16 07:31:20;;;;;;;10.93;4.53;;;9.70;68.30;;;;;;5048841;28;20045;-57
2023/12/16 07:33:49;;;;;;;12.73;4.15;;;9.60;68.40;;;;;;5045936;28;20534;-57
2023/12/16 07:36:18;;;;;;;12.68;4.57;;;9.60;68.50;;;;;;5051080;28;20052;-56
2023/12/16 07:38:45;;;;;;;9.68;4.50;;;9.60;68.70;;;;;;5043882;28;20060;-52
2023/12/16 07:41:12;;;;;;;10.45;3.90;;;9.60;68.80;;;;;;5046352;28;20069;-55
2023/12/16 07:43:50;;;;;;;12.10;4.15;;;9.60;68.80;;;;;;5039384;28;20166;-52
2023/12/16 07:46:17;;;;;;;13.88;4.20;;;9.60;68.80;;;;;;5051030;28;20082;-56
2023/12/16 07:48:46;;;;;;;8.75;3.67;;;9.50;68.80;;;;;;5049800;28;20056;-55
2023/12/16 07:51:17;;;;;;;10.95;4.70;;;9.50;68.90;;;;;;5044336;28;20123;-54
2023/12/16 07:53:50;;;;;;;10.30;4.53;;;9.50;68.80;;;;;;5046521;28;20065;-52
2023/12/16 07:56:27;;;;;;;7.85;3.55;;;9.50;69.00;;;;;;5049452;28;20612;-53
2023/12/16 07:58:54;;;;;;;10.38;4.28;;;9.60;69.00;;;;;;5046137;28;20064;-55
2023/12/16 08:01:24;;;;;;;9.85;4.30;;;9.50;69.10;;;;;;5049379;28;20128;-56
2023/12/16 08:03:54;;;;;;;7.55;3.85;;;9.60;69.20;;;;;;5050814;28;20045;-54
2023/12/16 08:06:23;;;;;;;7.97;3.17;;;9.50;69.10;;;;;;5047439;28;20099;-55
2023/12/16 08:08:49;;;;;;;8.95;3.65;;;9.60;69.10;;;;;;5047104;28;20045;-56
2023/12/16 08:11:19;;;;;;;8.30;3.55;;;9.60;69.10;;;;;;5050556;28;20083;-56
2023/12/16 08:13:46;;;;;;;8.82;3.95;;;9.60;69.10;;;;;;5048355;28;20119;-54
2023/12/16 08:16:13;;;;;;;6.80;3.70;;;9.60;69.00;;;;;;5042289;28;20049;-51
2023/12/16 08:18:40;;;;;;;10.38;4.10;;;9.60;69.10;;;;;;5050807;28;20045;-57
2023/12/16 08:21:07;;;;;;;12.02;4.05;;;9.60;69.00;;;;;;5050606;28;20040;-58
2023/12/16 08:23:33;;;;;;;14.85;4.47;;;9.60;68.80;;;;;;5029522;28;20064;-54
2023/12/16 08:26:02;;;;;;;9.15;3.67;;;9.70;68.90;;;;;;5045667;28;20094;-56
2023/12/16 08:28:35;;;;;;;6.70;3.38;;;9.70;68.90;;;;;;5048057;28;20049;-54
2023/12/16 08:31:04;;;;;;;10.50;3.38;;;9.70;68.90;;;;;;5048265;28;20041;-54
2023/12/16 08:33:31;;;;;;;8.43;3.70;;;9.70;68.80;;;;;;5044975;28;20079;-52
2023/12/16 08:36:03;;;;;;;6.68;3.50;;;9.80;68.90;;;;;;5050335;28;20033;-56
2023/12/16 08:38:35;;;;;;;12.82;4.10;;;9.80;68.90;;;;;;5049874;28;20072;-56
2023/12/16 08:41:08;;;;;;;9.77;3.80;;;9.80;68.90;;;;;;5045299;28;20033;-52
2023/12/16 08:43:38;;;;;;;7.75;4.15;;;9.80;68.90;;;;;;5048670;28;20041;-52
2023/12/16 08:46:05;;;;;;;12.10;4.60;;;9.90;68.90;;;;;;5050253;28;20111;-52
2023/12/16 08:48:35;;;;;;;12.63;4.10;;;10.00;69.10;;;;;;5048066;28;20120;-56
2023/12/16 08:51:10;;;;;;;9.65;4.65;;;10.00;69.00;;;;;;5043366;28;20122;-53
2023/12/16 08:53:36;;;;;;;9.98;4.38;;;10.10;69.00;;;;;;5046052;28;20456;-54
2023/12/16 08:56:03;;;;;;;10.30;3.67;;;10.20;68.90;;;;;;5046161;28;20068;-53
2023/12/16 08:58:30;;;;;;;9.13;4.47;;;10.20;68.70;;;;;;5043672;28;20507;-54
2023/12/16 09:00:58;;;;;;;10.60;3.45;;;10.30;68.60;;;;;;5049151;28;20399;-55
2023/12/16 09:03:25;;;;;;;9.82;4.38;;;10.40;68.40;;;;;;5032373;28;20048;-56
2023/12/16 09:05:52;;;;;;;9.30;3.95;;;10.50;68.30;;;;;;5049911;28;20044;-52
2023/12/16 09:08:18;;;;;;;5.68;2.92;;;10.50;68.00;;;;;;5047603;28;20049;-53
2023/12/16 09:10:50;;;;;;;11.00;3.58;;;10.60;68.00;;;;;;5053075;28;20049;-55
2023/12/16 09:13:16;;;;;;;9.85;4.75;;;10.70;67.70;;;;;;5053775;28;20049;-55
2023/12/16 09:15:43;;;;;;;7.90;4.13;;;10.70;67.70;;;;;;5053585;28;20068;-54
2023/12/16 09:18:11;;;;;;;6.20;3.05;;;10.70;67.60;;;;;;5052251;28;20075;-54
2023/12/16 09:20:38;;;;;;;8.05;3.90;;;10.80;67.50;;;;;;5053659;28;20056;-53
2023/12/16 09:23:07;;;;;;;7.60;3.22;;;10.80;67.40;;;;;;5052179;28;20041;-52
2023/12/16 09:25:36;;;;;;;9.38;3.30;;;10.90;67.20;;;;;;5047950;28;20098;-54
2023/12/16 09:28:02;;;;;;;8.75;3.55;;;10.90;67.10;;;;;;5053458;28;20060;-53
2023/12/16 09:30:29;;;;;;;9.77;4.07;;;11.00;67.10;;;;;;5053735;28;20049;-56
2023/12/16 09:32:56;;;;;;;7.90;4.05;;;11.00;67.10;;;;;;5046840;28;20069;-52
2023/12/16 09:35:25;;;;;;;7.40;3.40;;;11.10;67.00;;;;;;5052677;28;21486;-53
2023/12/16 09:37:54;;;;;;;10.02;2.88;;;11.10;66.90;;;;;;5052965;28;20084;-52
2023/12/16 09:40:20;;;;;;;11.75;3.25;;;11.20;66.90;;;;;;5047417;28;20053;-53
2023/12/16 09:42:58;;;;;;;4.22;2.40;;;11.20;66.80;;;;;;5049919;28;20130;-54
2023/12/16 09:45:25;;;;;;;9.77;3.30;;;11.20;66.80;;;;;;5053306;28;20041;-55
2023/12/16 09:47:55;;;;;;;7.25;3.00;;;11.30;66.70;;;;;;5053111;28;20033;-55
2023/12/16 09:50:24;;;;;;;4.95;2.38;;;11.40;66.70;;;;;;5048215;28;20549;-54
2023/12/16 09:52:51;;;;;;;6.72;3.45;;;11.40;66.60;;;;;;5052428;28;20057;-55
2023/12/16 09:55:18;;;;;;;7.53;3.20;;;11.40;66.50;;;;;;5048592;28;20080;-54
2023/12/16 09:57:45;;;;;;;5.07;2.70;;;11.50;66.30;;;;;;5050113;28;20063;-56
2023/12/16 10:00:13;;;;;;;8.07;3.40;;;11.50;66.30;;;;;;5050357;28;20128;-56
2023/12/16 10:02:47;;;;;;;8.52;3.78;;;11.60;66.30;;;;;;5053018;28;20044;-56
2023/12/16 10:05:15;;;;;;;11.25;3.80;;;11.60;66.30;;;;;;5051541;28;20060;-55
2023/12/16 10:07:42;;;;;;;12.43;3.88;;;11.60;66.30;;;;;;5032746;28;20049;-57
2023/12/16 10:10:10;;;;;;;8.32;2.83;;;11.70;66.40;;;;;;5052632;28;20037;-55
2023/12/16 10:12:39;;;;;;;5.72;3.17;;;11.70;66.20;;;;;;5052695;28;20044;-54
2023/12/16 10:15:06;;;;;;;8.80;3.55;;;11.70;66.10;;;;;;5032198;28;20061;-56
2023/12/16 10:17:36;;;;;;;10.10;2.75;;;11.80;66.20;;;;;;5048405;28;20072;-53
2023/12/16 10:20:07;;;;;;;6.80;2.65;;;11.80;66.20;;;;;;5052953;28;20044;-53
2023/12/16 10:22:39;;;;;;;11.35;3.53;;;11.90;66.20;;;;;;5049367;28;20536;-53
2023/12/16 10:25:06;;;;;;;7.60;3.15;;;11.90;66.20;;;;;;5048465;28;20033;-52
2023/12/16 10:27:33;;;;;;;8.93;3.38;;;12.00;66.60;;;;;;5048704;28;20112;-52
2023/12/16 10:30:05;;;;;;;7.40;3.15;;;12.00;66.10;;;;;;5049005;28;20473;-56
2023/12/16 10:32:44;;;;;;;13.45;3.40;;;12.10;65.90;;;;;;5045234;28;20087;-57
2023/12/16 10:35:13;;;;;;;9.60;2.65;;;12.20;65.60;;;;;;5049720;28;20055;-56
2023/12/16 10:37:49;;;;;;;8.85;3.47;;;12.20;66.00;;;;;;5051887;28;20090;-56
2023/12/16 10:40:23;;;;;;;13.85;3.50;;;12.30;65.70;;;;;;5046957;28;20046;-52
2023/12/16 10:42:57;;;;;;;9.32;2.85;;;12.30;65.90;;;;;;5050842;28;20158;-56
2023/12/16 10:45:30;;;;;;;9.40;3.50;;;12.40;65.80;;;;;;5052231;28;20071;-54
2023/12/16 10:48:00;;;;;;;10.65;3.92;;;12.50;65.80;;;;;;5052016;28;20045;-55
2023/12/16 10:50:28;;;;;;;11.23;2.80;;;12.50;65.80;;;;;;5047053;28;20111;-55
2023/12/16 10:52:56;;;;;;;8.00;2.88;;;12.60;65.80;;;;;;5049448;28;20060;-57
2023/12/16 10:55:31;;;;;;;10.30;2.72;;;12.70;65.60;;;;;;5048207;28;20041;-54
2023/12/16 10:58:17;;;;;;;9.63;2.97;;;12.80;65.70;;;;;;5048186;28;20403;-56
2023/12/16 11:00:50;;;;;;;5.72;2.90;;;12.90;65.10;;;;;;5048238;28;20052;-56
2023/12/16 11:03:44;;;;;;;6.85;2.42;;;12.90;65.20;;;;;;5051727;28;20124;-57
2023/12/16 11:06:25;;;;;;;7.07;3.42;;;13.00;65.00;;;;;;5043773;28;20041;-57
2023/12/16 11:08:53;;;;;;;7.97;3.10;;;13.00;65.10;;;;;;5051756;28;20044;-54
2023/12/16 11:11:20;;;;;;;10.45;2.60;;;13.00;65.00;;;;;;5050906;28;20053;-54
2023/12/16 11:13:50;;;;;;;8.27;2.63;;;13.00;64.80;;;;;;5049200;28;20051;-54
2023/12/16 11:16:30;;;;;;;7.68;2.78;;;13.10;64.80;;;;;;5049439;28;20507;-55
2023/12/16 11:19:03;;;;;;;10.10;3.67;;;13.10;64.60;;;;;;5051764;28;20040;-54
2023/12/16 11:21:30;;;;;;;13.07;2.88;;;13.10;64.70;;;;;;5046708;28;20041;-56
2023/12/16 11:24:01;;;;;;;11.98;3.33;;;13.10;64.70;;;;;;5045071;28;20565;-57
2023/12/16 11:26:34;;;;;;;7.88;2.80;;;13.10;64.40;;;;;;5045707;28;20128;-55
2023/12/16 11:29:03;;;;;;;7.75;2.95;;;13.10;64.40;;;;;;5050287;28;20071;-57
2023/12/16 11:31:35;;;;;;;6.55;3.30;;;13.10;64.70;;;;;;5046862;28;20041;-56
2023/12/16 11:34:05;;;;;;;11.20;3.93;;;13.10;64.70;;;;;;5047335;28;20091;-55
2023/12/16 11:37:02;;;;;;;10.45;2.80;;;13.10;64.90;;;;;;5046456;28;20290;-54
2023/12/16 11:39:45;;;;;;;9.82;2.95;;;13.10;64.30;;;;;;5046477;28;20118;-57
2023/12/16 11:42:15;;;;;;;7.93;2.45;;;13.10;64.50;;;;;;5044454;28;20085;-53
2023/12/16 11:44:54;;;;;;;8.82;2.97;;;13.10;64.40;;;;;;5051024;28;20098;-56
2023/12/16 11:47:28;;;;;;;9.40;2.97;;;13.10;64.20;;;;;;5049525;28;20033;-57
2023/12/16 11:49:56;;;;;;;11.38;3.00;;;13.10;64.40;;;;;;5048472;28;20136;-55
2023/12/16 11:52:27;;;;;;;9.43;2.50;;;13.10;64.70;;;;;;5050504;28;20477;-55
2023/12/16 11:54:55;;;;;;;9.57;3.80;;;13.10;64.60;;;;;;5046761;28;20118;-55
2023/12/16 11:57:26;;;;;;;6.90;2.97;;;13.10;64.70;;;;;;5048313;28;20134;-57
2023/12/16 11:59:54;;;;;;;8.10;2.95;;;13.10;64.70;;;;;;5047845;28;20087;-56
2023/12/16 12:02:21;;;;;;;7.57;3.50;;;13.10;64.80;;;;;;5050731;28;20384;-54
2023/12/16 12:04:48;;;;;;;7.35;3.13;;;13.10;64.90;;;;;;5050584;28;20052;-55
2023/12/16 12:07:16;;;;;;;7.47;3.20;;;13.10;64.80;;;;;;5043405;28;20057;-52
2023/12/16 12:09:47;;;;;;;11.65;3.00;;;13.10;64.90;;;;;;5050569;28;20045;-57
2023/12/16 12:12:16;;;;;;;7.72;3.65;;;13.10;64.90;;;;;;5048342;28;20585;-55
2023/12/16 12:14:46;;;;;;;9.90;3.33;;;13.10;64.90;;;;;;5050103;28;20091;-55
2023/12/16 12:17:16;;;;;;;13.63;3.72;;;13.10;65.00;;;;;;5047767;28;20052;-56
2023/12/16 12:19:47;;;;;;;10.43;3.42;;;13.10;65.00;;;;;;5050680;28;20114;-56
2023/12/16 12:22:19;;;;;;;8.32;3.40;;;13.10;65.10;;;;;;5048613;28;20047;-53
2023/12/16 12:24:48;;;;;;;7.90;2.88;;;13.10;64.90;;;;;;5046374;28;20121;-57
2023/12/16 12:27:18;;;;;;;6.95;3.30;;;13.10;64.90;;;;;;5047972;28;20049;-53
2023/12/16 12:29:58;;;;;;;10.23;3.67;;;13.10;65.30;;;;;;5050553;28;20052;-55
2023/12/16 12:32:35;;;;;;;9.75;3.10;;;13.10;64.80;;;;;;5049827;28;20095;-55
2023/12/16 12:35:07;;;;;;;9.88;3.33;;;13.10;65.10;;;;;;5048395;28;20045;-53
2023/12/16 12:37:41;;;;;;;9.93;3.40;;;13.10;65.20;;;;;;5044776;28;20124;-56
2023/12/16 12:40:12;;;;;;;14.07;3.42;;;13.10;65.20;;;;;;5050836;28;20045;-54
2023/12/16 12:42:50;;;;;;;9.35;3.95;;;13.10;65.30;;;;;;5049781;28;20055;-57
2023/12/16 12:45:24;;;;;;;13.13;3.80;;;13.10;65.20;;;;;;5052979;28;20040;-57
2023/12/16 12:47:56;;;;;;;9.55;3.75;;;13.10;65.50;;;;;;5054238;28;20615;-55
2023/12/16 12:50:25;;;;;;;8.48;3.90;;;13.10;65.40;;;;;;5053627;28;20741;-52
2023/12/16 12:52:52;;;;;;;9.52;3.65;;;13.10;65.60;;;;;;5049078;28;20079;-57
2023/12/16 12:55:43;;;;;;;12.50;3.65;;;13.10;65.60;;;;;;5051321;28;20045;-56